sensor_id;sensor_type;location;lat;lon;timestamp;P1;durP1;ratioP1;P2;durP2;ratioP2
44270;SDS011;29963;44.594;11.368;2023-04-25T00:01:59;7.25;;;2.65;;
44270;SDS011;29963;44.594;11.368;2023-04-25T00:04:25;3.70;;;3.05;;
44270;SDS011;29963;44.594;11.368;2023-04-25T00:06:52;4.78;;;2.80;;
44270;SDS011;29963;44.594;11.368;2023-04-25T00:09:21;2.40;;;2.10;;
44270;SDS011;29963;44.594;11.368;2023-04-25T00:11:47;3.65;;;3.08;;
44270;SDS011;29963;44.594;11.368;2023-04-25T00:14:13;4.40;;;2.95;;
44270;SDS011;29963;44.594;11.368;2023-04-25T00:16:39;5.03;;;3.15;;
44270;SDS011;29963;44.594;11.368;2023-04-25T00:19:06;6.85;;;3.67;;
44270;SDS011;29963;44.594;11.368;2023-04-25T00:21:32;5.15;;;3.92;;
44270;SDS011;29963;44.594;11.368;2023-04-25T00:23:58;5.18;;;3.88;;
44270;SDS011;29963;44.594;11.368;2023-04-25T00:26:25;9.48;;;4.28;;
44270;SDS011;29963;44.594;11.368;2023-04-25T00:28:50;8.43;;;3.83;;
44270;SDS011;29963;44.594;11.368;2023-04-25T00:31:16;8.38;;;4.70;;
44270;SDS011;29963;44.594;11.368;2023-04-25T00:33:42;4.13;;;3.42;;
44270;SDS011;29963;44.594;11.368;2023-04-25T00:36:07;3.60;;;3.30;;
44270;SDS011;29963;44.594;11.368;2023-04-25T00:38:33;5.65;;;3.83;;
44270;SDS011;29963;44.594;11.368;2023-04-25T00:40:59;4.63;;;3.08;;
44270;SDS011;29963;44.594;11.368;2023-04-25T00:43:26;4.75;;;3.80;;
44270;SDS011;29963;44.594;11.368;2023-04-25T00:45:51;5.60;;;3.33;;
44270;SDS011;29963;44.594;11.368;2023-04-25T00:48:17;6.65;;;2.80;;
44270;SDS011;29963;44.594;11.368;2023-04-25T00:50:47;5.38;;;3.00;;
44270;SDS011;29963;44.594;11.368;2023-04-25T00:53:24;7.05;;;3.42;;
44270;SDS011;29963;44.594;11.368;2023-04-25T00:55:50;10.38;;;4.32;;
44270;SDS011;29963;44.594;11.368;2023-04-25T00:58:17;8.07;;;3.42;;
44270;SDS011;29963;44.594;11.368;2023-04-25T01:00:44;4.50;;;3.30;;
44270;SDS011;29963;44.594;11.368;2023-04-25T01:03:11;6.50;;;4.13;;
44270;SDS011;29963;44.594;11.368;2023-04-25T01:05:38;5.00;;;3.33;;
44270;SDS011;29963;44.594;11.368;2023-04-25T01:08:06;4.80;;;2.95;;
44270;SDS011;29963;44.594;11.368;2023-04-25T01:10:32;6.40;;;3.13;;
44270;SDS011;29963;44.594;11.368;2023-04-25T01:12:57;5.10;;;2.67;;
44270;SDS011;29963;44.594;11.368;2023-04-25T01:15:23;5.85;;;3.20;;
44270;SDS011;29963;44.594;11.368;2023-04-25T01:17:49;4.65;;;3.05;;
44270;SDS011;29963;44.594;11.368;2023-04-25T01:20:14;7.22;;;2.58;;
44270;SDS011;29963;44.594;11.368;2023-04-25T01:22:41;6.75;;;2.65;;
44270;SDS011;29963;44.594;11.368;2023-04-25T01:25:07;4.82;;;3.03;;
44270;SDS011;29963;44.594;11.368;2023-04-25T01:27:35;4.70;;;2.97;;
44270;SDS011;29963;44.594;11.368;2023-04-25T01:30:01;7.20;;;3.15;;
44270;SDS011;29963;44.594;11.368;2023-04-25T01:32:28;6.63;;;3.55;;
44270;SDS011;29963;44.594;11.368;2023-04-25T01:34:54;3.97;;;3.13;;
44270;SDS011;29963;44.594;11.368;2023-04-25T01:37:19;9.88;;;3.40;;
44270;SDS011;29963;44.594;11.368;2023-04-25T01:39:45;4.95;;;3.45;;
44270;SDS011;29963;44.594;11.368;2023-04-25T01:42:12;9.60;;;3.10;;
44270;SDS011;29963;44.594;11.368;2023-04-25T01:44:38;6.68;;;3.67;;
44270;SDS011;29963;44.594;11.368;2023-04-25T01:47:03;11.55;;;4.13;;
44270;SDS011;29963;44.594;11.368;2023-04-25T01:49:29;8.55;;;3.42;;
44270;SDS011;29963;44.594;11.368;2023-04-25T01:51:55;4.15;;;3.67;;
44270;SDS011;29963;44.594;11.368;2023-04-25T01:54:20;4.50;;;3.60;;
44270;SDS011;29963;44.594;11.368;2023-04-25T01:56:50;6.28;;;3.33;;
44270;SDS011;29963;44.594;11.368;2023-04-25T01:59:16;4.30;;;2.97;;
44270;SDS011;29963;44.594;11.368;2023-04-25T02:01:43;5.82;;;3.35;;
44270;SDS011;29963;44.594;11.368;2023-04-25T02:04:08;8.88;;;3.45;;
44270;SDS011;29963;44.594;11.368;2023-04-25T02:06:34;7.35;;;3.47;;
44270;SDS011;29963;44.594;11.368;2023-04-25T02:08:59;6.70;;;3.67;;
44270;SDS011;29963;44.594;11.368;2023-04-25T02:11:25;5.72;;;3.53;;
44270;SDS011;29963;44.594;11.368;2023-04-25T02:13:50;10.13;;;3.53;;
44270;SDS011;29963;44.594;11.368;2023-04-25T02:16:16;13.90;;;5.22;;
44270;SDS011;29963;44.594;11.368;2023-04-25T02:18:42;6.00;;;3.63;;
44270;SDS011;29963;44.594;11.368;2023-04-25T02:21:09;6.30;;;3.97;;
44270;SDS011;29963;44.594;11.368;2023-04-25T02:23:36;8.13;;;4.32;;
44270;SDS011;29963;44.594;11.368;2023-04-25T02:26:02;18.80;;;8.60;;
44270;SDS011;29963;44.594;11.368;2023-04-25T02:28:27;44.65;;;22.77;;
44270;SDS011;29963;44.594;11.368;2023-04-25T02:30:53;86.93;;;39.95;;
44270;SDS011;29963;44.594;11.368;2023-04-25T02:33:19;60.78;;;31.73;;
44270;SDS011;29963;44.594;11.368;2023-04-25T02:35:45;25.73;;;14.07;;
44270;SDS011;29963;44.594;11.368;2023-04-25T02:38:11;9.85;;;6.38;;
44270;SDS011;29963;44.594;11.368;2023-04-25T02:40:37;12.30;;;5.50;;
44270;SDS011;29963;44.594;11.368;2023-04-25T02:43:02;11.73;;;7.10;;
44270;SDS011;29963;44.594;11.368;2023-04-25T02:45:28;51.00;;;19.52;;
44270;SDS011;29963;44.594;11.368;2023-04-25T02:47:53;61.58;;;25.85;;
44270;SDS011;29963;44.594;11.368;2023-04-25T02:50:19;32.47;;;12.85;;
44270;SDS011;29963;44.594;11.368;2023-04-25T02:52:45;40.28;;;17.45;;
44270;SDS011;29963;44.594;11.368;2023-04-25T02:55:11;15.32;;;9.15;;
44270;SDS011;29963;44.594;11.368;2023-04-25T02:57:37;27.52;;;15.25;;
44270;SDS011;29963;44.594;11.368;2023-04-25T03:00:03;15.15;;;7.82;;
44270;SDS011;29963;44.594;11.368;2023-04-25T03:02:30;12.73;;;6.90;;
44270;SDS011;29963;44.594;11.368;2023-04-25T03:04:55;8.52;;;5.45;;
44270;SDS011;29963;44.594;11.368;2023-04-25T03:07:21;9.95;;;5.10;;
44270;SDS011;29963;44.594;11.368;2023-04-25T03:09:47;9.60;;;4.00;;
44270;SDS011;29963;44.594;11.368;2023-04-25T03:12:12;6.65;;;3.58;;
44270;SDS011;29963;44.594;11.368;2023-04-25T03:14:38;8.43;;;3.65;;
44270;SDS011;29963;44.594;11.368;2023-04-25T03:17:03;8.38;;;3.70;;
44270;SDS011;29963;44.594;11.368;2023-04-25T03:19:29;11.52;;;4.30;;
44270;SDS011;29963;44.594;11.368;2023-04-25T03:21:55;8.65;;;3.67;;
44270;SDS011;29963;44.594;11.368;2023-04-25T03:24:21;7.30;;;3.80;;
44270;SDS011;29963;44.594;11.368;2023-04-25T03:26:46;6.72;;;3.50;;
44270;SDS011;29963;44.594;11.368;2023-04-25T03:29:12;7.95;;;3.90;;
44270;SDS011;29963;44.594;11.368;2023-04-25T03:31:38;5.93;;;3.47;;
44270;SDS011;29963;44.594;11.368;2023-04-25T03:34:03;7.20;;;3.90;;
44270;SDS011;29963;44.594;11.368;2023-04-25T03:36:29;5.53;;;3.78;;
44270;SDS011;29963;44.594;11.368;2023-04-25T03:38:55;4.93;;;4.20;;
44270;SDS011;29963;44.594;11.368;2023-04-25T03:41:21;11.48;;;4.13;;
44270;SDS011;29963;44.594;11.368;2023-04-25T03:43:46;6.53;;;4.47;;
44270;SDS011;29963;44.594;11.368;2023-04-25T03:46:12;7.50;;;4.80;;
44270;SDS011;29963;44.594;11.368;2023-04-25T03:48:37;6.93;;;4.13;;
44270;SDS011;29963;44.594;11.368;2023-04-25T03:51:03;14.57;;;4.82;;
44270;SDS011;29963;44.594;11.368;2023-04-25T03:53:29;6.70;;;5.13;;
44270;SDS011;29963;44.594;11.368;2023-04-25T03:55:54;9.05;;;5.75;;
44270;SDS011;29963;44.594;11.368;2023-04-25T03:58:20;7.65;;;5.13;;
44270;SDS011;29963;44.594;11.368;2023-04-25T04:00:48;9.02;;;5.70;;
44270;SDS011;29963;44.594;11.368;2023-04-25T04:03:13;10.02;;;5.03;;
44270;SDS011;29963;44.594;11.368;2023-04-25T04:05:39;7.90;;;5.78;;
44270;SDS011;29963;44.594;11.368;2023-04-25T04:08:05;8.57;;;5.03;;
44270;SDS011;29963;44.594;11.368;2023-04-25T04:10:31;7.78;;;5.35;;
44270;SDS011;29963;44.594;11.368;2023-04-25T04:12:57;7.03;;;4.57;;
44270;SDS011;29963;44.594;11.368;2023-04-25T04:15:22;8.90;;;5.72;;
44270;SDS011;29963;44.594;11.368;2023-04-25T04:17:48;5.30;;;4.85;;
44270;SDS011;29963;44.594;11.368;2023-04-25T04:20:14;8.27;;;5.22;;
44270;SDS011;29963;44.594;11.368;2023-04-25T04:22:39;5.13;;;4.18;;
44270;SDS011;29963;44.594;11.368;2023-04-25T04:25:05;7.28;;;3.75;;
44270;SDS011;29963;44.594;11.368;2023-04-25T04:27:31;4.20;;;3.78;;
44270;SDS011;29963;44.594;11.368;2023-04-25T04:29:57;6.70;;;3.78;;
44270;SDS011;29963;44.594;11.368;2023-04-25T04:32:22;5.50;;;3.20;;
44270;SDS011;29963;44.594;11.368;2023-04-25T04:34:48;7.07;;;4.07;;
44270;SDS011;29963;44.594;11.368;2023-04-25T04:37:14;6.82;;;3.70;;
44270;SDS011;29963;44.594;11.368;2023-04-25T04:39:40;7.70;;;4.45;;
44270;SDS011;29963;44.594;11.368;2023-04-25T04:42:05;8.93;;;4.40;;
44270;SDS011;29963;44.594;11.368;2023-04-25T04:44:31;5.50;;;3.80;;
44270;SDS011;29963;44.594;11.368;2023-04-25T04:46:58;6.30;;;3.55;;
44270;SDS011;29963;44.594;11.368;2023-04-25T04:49:24;6.50;;;4.13;;
44270;SDS011;29963;44.594;11.368;2023-04-25T04:51:49;6.20;;;4.20;;
44270;SDS011;29963;44.594;11.368;2023-04-25T04:54:15;9.57;;;4.68;;
44270;SDS011;29963;44.594;11.368;2023-04-25T04:56:41;9.80;;;5.00;;
44270;SDS011;29963;44.594;11.368;2023-04-25T04:59:06;6.43;;;4.43;;
44270;SDS011;29963;44.594;11.368;2023-04-25T05:01:32;8.30;;;4.85;;
44270;SDS011;29963;44.594;11.368;2023-04-25T05:04:00;6.88;;;5.25;;
44270;SDS011;29963;44.594;11.368;2023-04-25T05:06:27;7.55;;;5.03;;
44270;SDS011;29963;44.594;11.368;2023-04-25T05:08:56;6.20;;;5.60;;
44270;SDS011;29963;44.594;11.368;2023-04-25T05:11:23;6.35;;;5.03;;
44270;SDS011;29963;44.594;11.368;2023-04-25T05:13:50;7.72;;;5.40;;
44270;SDS011;29963;44.594;11.368;2023-04-25T05:16:16;10.50;;;5.10;;
44270;SDS011;29963;44.594;11.368;2023-04-25T05:18:42;7.60;;;5.25;;
44270;SDS011;29963;44.594;11.368;2023-04-25T05:21:08;7.43;;;5.07;;
44270;SDS011;29963;44.594;11.368;2023-04-25T05:23:33;10.10;;;5.53;;
44270;SDS011;29963;44.594;11.368;2023-04-25T05:25:59;7.50;;;5.95;;
44270;SDS011;29963;44.594;11.368;2023-04-25T05:28:25;8.27;;;5.25;;
44270;SDS011;29963;44.594;11.368;2023-04-25T05:30:50;6.57;;;5.68;;
44270;SDS011;29963;44.594;11.368;2023-04-25T05:33:17;8.90;;;6.47;;
44270;SDS011;29963;44.594;11.368;2023-04-25T05:35:43;6.88;;;5.95;;
44270;SDS011;29963;44.594;11.368;2023-04-25T05:38:09;8.05;;;6.65;;
44270;SDS011;29963;44.594;11.368;2023-04-25T05:40:34;7.45;;;6.75;;
44270;SDS011;29963;44.594;11.368;2023-04-25T05:43:00;8.07;;;6.60;;
44270;SDS011;29963;44.594;11.368;2023-04-25T05:45:26;8.07;;;7.22;;
44270;SDS011;29963;44.594;11.368;2023-04-25T05:47:51;8.43;;;7.63;;
44270;SDS011;29963;44.594;11.368;2023-04-25T05:50:17;8.25;;;7.20;;
44270;SDS011;29963;44.594;11.368;2023-04-25T05:52:43;8.57;;;7.72;;
44270;SDS011;29963;44.594;11.368;2023-04-25T05:55:09;8.55;;;7.75;;
44270;SDS011;29963;44.594;11.368;2023-04-25T05:57:34;8.15;;;6.85;;
44270;SDS011;29963;44.594;11.368;2023-04-25T06:00:00;7.80;;;6.82;;
44270;SDS011;29963;44.594;11.368;2023-04-25T06:02:26;9.80;;;6.63;;
44270;SDS011;29963;44.594;11.368;2023-04-25T06:04:52;8.13;;;7.32;;
44270;SDS011;29963;44.594;11.368;2023-04-25T06:07:18;7.30;;;6.60;;
44270;SDS011;29963;44.594;11.368;2023-04-25T06:09:45;8.00;;;6.82;;
44270;SDS011;29963;44.594;11.368;2023-04-25T06:12:10;8.63;;;7.13;;
44270;SDS011;29963;44.594;11.368;2023-04-25T06:14:36;7.68;;;6.63;;
44270;SDS011;29963;44.594;11.368;2023-04-25T06:17:02;7.53;;;6.80;;
44270;SDS011;29963;44.594;11.368;2023-04-25T06:19:33;14.60;;;7.13;;
44270;SDS011;29963;44.594;11.368;2023-04-25T06:21:59;8.82;;;7.38;;
44270;SDS011;29963;44.594;11.368;2023-04-25T06:24:25;10.50;;;7.20;;
44270;SDS011;29963;44.594;11.368;2023-04-25T06:26:50;7.28;;;6.22;;
44270;SDS011;29963;44.594;11.368;2023-04-25T06:29:16;7.45;;;6.32;;
44270;SDS011;29963;44.594;11.368;2023-04-25T06:31:42;9.88;;;6.78;;
44270;SDS011;29963;44.594;11.368;2023-04-25T06:34:07;6.75;;;6.13;;
44270;SDS011;29963;44.594;11.368;2023-04-25T06:36:33;5.90;;;5.35;;
44270;SDS011;29963;44.594;11.368;2023-04-25T06:38:58;10.23;;;5.90;;
44270;SDS011;29963;44.594;11.368;2023-04-25T06:41:24;6.88;;;5.55;;
44270;SDS011;29963;44.594;11.368;2023-04-25T06:43:50;8.10;;;5.88;;
44270;SDS011;29963;44.594;11.368;2023-04-25T06:46:15;7.13;;;6.43;;
44270;SDS011;29963;44.594;11.368;2023-04-25T06:48:41;7.53;;;6.60;;
44270;SDS011;29963;44.594;11.368;2023-04-25T06:51:07;8.43;;;6.65;;
44270;SDS011;29963;44.594;11.368;2023-04-25T06:53:32;8.73;;;7.00;;
44270;SDS011;29963;44.594;11.368;2023-04-25T06:55:58;7.65;;;6.93;;
44270;SDS011;29963;44.594;11.368;2023-04-25T06:58:24;7.63;;;6.85;;
44270;SDS011;29963;44.594;11.368;2023-04-25T07:00:51;8.38;;;6.97;;
44270;SDS011;29963;44.594;11.368;2023-04-25T07:03:16;8.60;;;7.78;;
44270;SDS011;29963;44.594;11.368;2023-04-25T07:05:42;7.38;;;6.45;;
44270;SDS011;29963;44.594;11.368;2023-04-25T07:08:08;8.73;;;7.35;;
44270;SDS011;29963;44.594;11.368;2023-04-25T07:10:33;8.05;;;7.28;;
44270;SDS011;29963;44.594;11.368;2023-04-25T07:13:00;9.48;;;7.57;;
44270;SDS011;29963;44.594;11.368;2023-04-25T07:15:25;8.10;;;7.05;;
44270;SDS011;29963;44.594;11.368;2023-04-25T07:17:51;8.80;;;6.95;;
44270;SDS011;29963;44.594;11.368;2023-04-25T07:20:17;9.00;;;7.53;;
44270;SDS011;29963;44.594;11.368;2023-04-25T07:22:42;7.10;;;6.25;;
44270;SDS011;29963;44.594;11.368;2023-04-25T07:25:09;7.18;;;6.40;;
44270;SDS011;29963;44.594;11.368;2023-04-25T07:27:34;14.90;;;7.00;;
44270;SDS011;29963;44.594;11.368;2023-04-25T07:30:00;10.10;;;5.55;;
44270;SDS011;29963;44.594;11.368;2023-04-25T07:32:26;6.75;;;6.05;;
44270;SDS011;29963;44.594;11.368;2023-04-25T07:34:52;10.57;;;6.63;;
44270;SDS011;29963;44.594;11.368;2023-04-25T07:37:17;11.60;;;6.43;;
44270;SDS011;29963;44.594;11.368;2023-04-25T07:39:44;9.30;;;6.38;;
44270;SDS011;29963;44.594;11.368;2023-04-25T07:42:11;9.23;;;6.07;;
44270;SDS011;29963;44.594;11.368;2023-04-25T07:44:37;7.80;;;6.25;;
44270;SDS011;29963;44.594;11.368;2023-04-25T07:47:07;11.25;;;5.60;;
44270;SDS011;29963;44.594;11.368;2023-04-25T07:49:34;7.95;;;6.03;;
44270;SDS011;29963;44.594;11.368;2023-04-25T07:52:00;6.68;;;5.75;;
44270;SDS011;29963;44.594;11.368;2023-04-25T07:54:26;8.48;;;5.60;;
44270;SDS011;29963;44.594;11.368;2023-04-25T07:56:52;6.97;;;6.28;;
44270;SDS011;29963;44.594;11.368;2023-04-25T07:59:18;8.13;;;5.93;;
44270;SDS011;29963;44.594;11.368;2023-04-25T08:01:44;7.70;;;6.28;;
44270;SDS011;29963;44.594;11.368;2023-04-25T08:04:10;5.95;;;4.88;;
44270;SDS011;29963;44.594;11.368;2023-04-25T08:06:36;6.38;;;5.72;;
44270;SDS011;29963;44.594;11.368;2023-04-25T08:09:02;6.30;;;5.38;;
44270;SDS011;29963;44.594;11.368;2023-04-25T08:11:28;5.70;;;4.90;;
44270;SDS011;29963;44.594;11.368;2023-04-25T08:13:53;7.32;;;5.38;;
44270;SDS011;29963;44.594;11.368;2023-04-25T08:16:19;8.55;;;5.07;;
44270;SDS011;29963;44.594;11.368;2023-04-25T08:18:45;4.63;;;4.22;;
44270;SDS011;29963;44.594;11.368;2023-04-25T08:21:10;7.05;;;5.75;;
44270;SDS011;29963;44.594;11.368;2023-04-25T08:23:37;5.70;;;4.97;;
44270;SDS011;29963;44.594;11.368;2023-04-25T08:26:03;8.52;;;5.38;;
44270;SDS011;29963;44.594;11.368;2023-04-25T08:28:29;3.83;;;3.50;;
44270;SDS011;29963;44.594;11.368;2023-04-25T08:30:55;3.03;;;2.00;;
44270;SDS011;29963;44.594;11.368;2023-04-25T08:33:21;2.28;;;2.05;;
44270;SDS011;29963;44.594;11.368;2023-04-25T08:35:47;3.05;;;1.83;;
44270;SDS011;29963;44.594;11.368;2023-04-25T08:38:12;1.70;;;1.60;;
44270;SDS011;29963;44.594;11.368;2023-04-25T08:40:38;4.20;;;2.22;;
44270;SDS011;29963;44.594;11.368;2023-04-25T08:43:05;3.17;;;2.03;;
44270;SDS011;29963;44.594;11.368;2023-04-25T08:45:36;3.67;;;1.60;;
44270;SDS011;29963;44.594;11.368;2023-04-25T08:48:06;5.38;;;1.50;;
44270;SDS011;29963;44.594;11.368;2023-04-25T08:50:36;1.40;;;1.27;;
44270;SDS011;29963;44.594;11.368;2023-04-25T08:53:09;1.42;;;1.08;;
44270;SDS011;29963;44.594;11.368;2023-04-25T08:55:43;4.95;;;1.25;;
44270;SDS011;29963;44.594;11.368;2023-04-25T08:58:10;4.57;;;0.95;;
44270;SDS011;29963;44.594;11.368;2023-04-25T09:00:36;3.33;;;0.93;;
44270;SDS011;29963;44.594;11.368;2023-04-25T09:03:02;3.03;;;1.23;;
44270;SDS011;29963;44.594;11.368;2023-04-25T09:05:28;3.38;;;2.28;;
44270;SDS011;29963;44.594;11.368;2023-04-25T09:07:54;1.38;;;1.27;;
44270;SDS011;29963;44.594;11.368;2023-04-25T09:10:21;3.78;;;1.02;;
44270;SDS011;29963;44.594;11.368;2023-04-25T09:15:30;1.00;;;0.90;;
44270;SDS011;29963;44.594;11.368;2023-04-25T09:17:56;1.15;;;0.85;;
44270;SDS011;29963;44.594;11.368;2023-04-25T09:20:22;0.70;;;0.70;;
44270;SDS011;29963;44.594;11.368;2023-04-25T09:22:49;0.93;;;0.70;;
44270;SDS011;29963;44.594;11.368;2023-04-25T09:25:27;0.52;;;0.52;;
44270;SDS011;29963;44.594;11.368;2023-04-25T09:28:05;0.70;;;0.70;;
44270;SDS011;29963;44.594;11.368;2023-04-25T09:30:32;0.50;;;0.50;;
44270;SDS011;29963;44.594;11.368;2023-04-25T09:33:06;1.00;;;0.82;;
44270;SDS011;29963;44.594;11.368;2023-04-25T09:35:36;0.60;;;0.60;;
44270;SDS011;29963;44.594;11.368;2023-04-25T09:38:12;2.50;;;1.10;;
44270;SDS011;29963;44.594;11.368;2023-04-25T09:40:43;1.08;;;1.02;;
44270;SDS011;29963;44.594;11.368;2023-04-25T09:43:10;2.30;;;0.85;;
44270;SDS011;29963;44.594;11.368;2023-04-25T09:45:46;1.52;;;1.10;;
44270;SDS011;29963;44.594;11.368;2023-04-25T09:48:16;0.73;;;0.70;;
44270;SDS011;29963;44.594;11.368;2023-04-25T09:53:38;0.80;;;0.80;;
44270;SDS011;29963;44.594;11.368;2023-04-25T09:56:06;2.83;;;1.90;;
44270;SDS011;29963;44.594;11.368;2023-04-25T09:58:35;3.08;;;2.47;;
44270;SDS011;29963;44.594;11.368;2023-04-25T10:01:04;3.13;;;2.40;;
44270;SDS011;29963;44.594;11.368;2023-04-25T10:03:32;7.10;;;4.50;;
44270;SDS011;29963;44.594;11.368;2023-04-25T10:06:00;2.95;;;1.55;;
44270;SDS011;29963;44.594;11.368;2023-04-25T10:08:28;1.10;;;1.00;;
44270;SDS011;29963;44.594;11.368;2023-04-25T10:11:01;1.48;;;1.38;;
44270;SDS011;29963;44.594;11.368;2023-04-25T10:13:28;10.65;;;5.45;;
44270;SDS011;29963;44.594;11.368;2023-04-25T10:15:56;4.40;;;2.47;;
44270;SDS011;29963;44.594;11.368;2023-04-25T10:18:23;1.13;;;0.82;;
44270;SDS011;29963;44.594;11.368;2023-04-25T10:20:54;3.30;;;1.88;;
44270;SDS011;29963;44.594;11.368;2023-04-25T10:23:21;3.42;;;2.40;;
44270;SDS011;29963;44.594;11.368;2023-04-25T10:25:48;4.72;;;2.92;;
44270;SDS011;29963;44.594;11.368;2023-04-25T10:28:16;2.92;;;1.27;;
44270;SDS011;29963;44.594;11.368;2023-04-25T10:31:00;2.70;;;1.77;;
44270;SDS011;29963;44.594;11.368;2023-04-25T10:33:34;1.35;;;1.00;;
44270;SDS011;29963;44.594;11.368;2023-04-25T10:38:56;1.00;;;0.93;;
44270;SDS011;29963;44.594;11.368;2023-04-25T10:41:31;0.85;;;0.85;;
44270;SDS011;29963;44.594;11.368;2023-04-25T10:44:10;0.77;;;0.70;;
44270;SDS011;29963;44.594;11.368;2023-04-25T10:46:35;0.50;;;0.50;;
44270;SDS011;29963;44.594;11.368;2023-04-25T10:49:02;1.67;;;1.15;;
44270;SDS011;29963;44.594;11.368;2023-04-25T10:51:31;0.90;;;0.90;;
44270;SDS011;29963;44.594;11.368;2023-04-25T11:01:36;2.95;;;2.70;;
44270;SDS011;29963;44.594;11.368;2023-04-25T11:04:05;3.10;;;2.13;;
44270;SDS011;29963;44.594;11.368;2023-04-25T11:07:32;4.10;;;2.30;;
44270;SDS011;29963;44.594;11.368;2023-04-25T11:09:29;1.17;;;1.08;;
44270;SDS011;29963;44.594;11.368;2023-04-25T11:11:55;6.78;;;5.13;;
44270;SDS011;29963;44.594;11.368;2023-04-25T11:14:22;2.90;;;1.75;;
44270;SDS011;29963;44.594;11.368;2023-04-25T11:16:52;23.20;;;17.00;;
44270;SDS011;29963;44.594;11.368;2023-04-25T11:19:22;12.73;;;8.38;;
44270;SDS011;29963;44.594;11.368;2023-04-25T11:21:49;3.85;;;1.77;;
44270;SDS011;29963;44.594;11.368;2023-04-25T11:24:15;2.42;;;1.33;;
44270;SDS011;29963;44.594;11.368;2023-04-25T11:26:42;0.70;;;0.70;;
44270;SDS011;29963;44.594;11.368;2023-04-25T11:29:08;0.77;;;0.77;;
44270;SDS011;29963;44.594;11.368;2023-04-25T11:31:34;0.65;;;0.65;;
44270;SDS011;29963;44.594;11.368;2023-04-25T11:34:00;0.55;;;0.52;;
44270;SDS011;29963;44.594;11.368;2023-04-25T11:36:26;0.68;;;0.57;;
44270;SDS011;29963;44.594;11.368;2023-04-25T11:38:52;0.55;;;0.50;;
44270;SDS011;29963;44.594;11.368;2023-04-25T11:41:21;1.40;;;1.30;;
44270;SDS011;29963;44.594;11.368;2023-04-25T11:43:47;0.63;;;0.63;;
44270;SDS011;29963;44.594;11.368;2023-04-25T11:46:15;0.88;;;0.57;;
44270;SDS011;29963;44.594;11.368;2023-04-25T11:48:41;1.77;;;1.10;;
44270;SDS011;29963;44.594;11.368;2023-04-25T11:51:07;0.77;;;0.70;;
44270;SDS011;29963;44.594;11.368;2023-04-25T11:53:33;1.23;;;0.80;;
44270;SDS011;29963;44.594;11.368;2023-04-25T11:56:00;1.80;;;1.08;;
44270;SDS011;29963;44.594;11.368;2023-04-25T11:58:26;1.48;;;0.88;;
44270;SDS011;29963;44.594;11.368;2023-04-25T12:00:52;1.45;;;0.90;;
44270;SDS011;29963;44.594;11.368;2023-04-25T12:03:18;2.72;;;0.75;;
44270;SDS011;29963;44.594;11.368;2023-04-25T12:05:44;1.02;;;0.50;;
44270;SDS011;29963;44.594;11.368;2023-04-25T12:08:14;0.50;;;0.50;;
44270;SDS011;29963;44.594;11.368;2023-04-25T12:10:41;1.67;;;0.50;;
44270;SDS011;29963;44.594;11.368;2023-04-25T12:13:19;0.60;;;0.60;;
44270;SDS011;29963;44.594;11.368;2023-04-25T12:15:49;0.55;;;0.55;;
44270;SDS011;29963;44.594;11.368;2023-04-25T12:18:18;0.70;;;0.70;;
44270;SDS011;29963;44.594;11.368;2023-04-25T12:20:45;0.60;;;0.60;;
44270;SDS011;29963;44.594;11.368;2023-04-25T12:23:11;0.50;;;0.50;;
44270;SDS011;29963;44.594;11.368;2023-04-25T12:25:38;0.50;;;0.50;;
44270;SDS011;29963;44.594;11.368;2023-04-25T12:28:09;0.70;;;0.70;;
44270;SDS011;29963;44.594;11.368;2023-04-25T12:33:33;0.80;;;0.80;;
44270;SDS011;29963;44.594;11.368;2023-04-25T12:36:00;2.72;;;0.98;;
44270;SDS011;29963;44.594;11.368;2023-04-25T12:38:37;0.57;;;0.57;;
44270;SDS011;29963;44.594;11.368;2023-04-25T12:41:05;0.90;;;0.90;;
44270;SDS011;29963;44.594;11.368;2023-04-25T12:43:31;2.67;;;0.90;;
44270;SDS011;29963;44.594;11.368;2023-04-25T12:45:57;0.95;;;0.77;;
44270;SDS011;29963;44.594;11.368;2023-04-25T12:48:23;3.20;;;0.60;;
44270;SDS011;29963;44.594;11.368;2023-04-25T12:50:49;1.92;;;0.88;;
44270;SDS011;29963;44.594;11.368;2023-04-25T12:53:16;1.08;;;0.80;;
44270;SDS011;29963;44.594;11.368;2023-04-25T12:55:45;0.70;;;0.68;;
44270;SDS011;29963;44.594;11.368;2023-04-25T12:58:12;0.90;;;0.80;;
44270;SDS011;29963;44.594;11.368;2023-04-25T13:00:42;0.68;;;0.50;;
44270;SDS011;29963;44.594;11.368;2023-04-25T13:03:08;2.15;;;0.85;;
44270;SDS011;29963;44.594;11.368;2023-04-25T13:05:35;1.55;;;0.80;;
44270;SDS011;29963;44.594;11.368;2023-04-25T13:08:01;1.92;;;0.93;;
44270;SDS011;29963;44.594;11.368;2023-04-25T13:10:27;1.40;;;0.95;;
44270;SDS011;29963;44.594;11.368;2023-04-25T13:12:53;3.00;;;0.60;;
44270;SDS011;29963;44.594;11.368;2023-04-25T13:15:19;2.10;;;0.60;;
44270;SDS011;29963;44.594;11.368;2023-04-25T13:17:44;0.50;;;0.50;;
44270;SDS011;29963;44.594;11.368;2023-04-25T13:20:10;2.53;;;1.40;;
44270;SDS011;29963;44.594;11.368;2023-04-25T13:22:39;0.90;;;0.57;;
44270;SDS011;29963;44.594;11.368;2023-04-25T13:25:05;2.13;;;0.65;;
44270;SDS011;29963;44.594;11.368;2023-04-25T13:27:33;0.50;;;0.50;;
44270;SDS011;29963;44.594;11.368;2023-04-25T13:29:59;2.08;;;0.60;;
44270;SDS011;29963;44.594;11.368;2023-04-25T13:32:32;0.65;;;0.52;;
44270;SDS011;29963;44.594;11.368;2023-04-25T13:34:58;0.52;;;0.52;;
44270;SDS011;29963;44.594;11.368;2023-04-25T13:37:24;0.50;;;0.50;;
44270;SDS011;29963;44.594;11.368;2023-04-25T13:39:50;0.40;;;0.40;;
44270;SDS011;29963;44.594;11.368;2023-04-25T13:42:16;1.10;;;0.45;;
44270;SDS011;29963;44.594;11.368;2023-04-25T13:44:41;3.50;;;0.60;;
44270;SDS011;29963;44.594;11.368;2023-04-25T13:47:07;0.57;;;0.50;;
44270;SDS011;29963;44.594;11.368;2023-04-25T13:49:32;1.85;;;0.80;;
44270;SDS011;29963;44.594;11.368;2023-04-25T13:51:58;0.85;;;0.77;;
44270;SDS011;29963;44.594;11.368;2023-04-25T13:54:23;3.83;;;0.68;;
44270;SDS011;29963;44.594;11.368;2023-04-25T13:56:49;0.65;;;0.60;;
44270;SDS011;29963;44.594;11.368;2023-04-25T13:59:15;0.80;;;0.80;;
44270;SDS011;29963;44.594;11.368;2023-04-25T14:01:41;3.75;;;0.90;;
44270;SDS011;29963;44.594;11.368;2023-04-25T14:04:06;1.25;;;0.65;;
44270;SDS011;29963;44.594;11.368;2023-04-25T14:06:33;2.22;;;1.02;;
44270;SDS011;29963;44.594;11.368;2023-04-25T14:09:00;0.40;;;0.40;;
44270;SDS011;29963;44.594;11.368;2023-04-25T14:11:26;1.98;;;1.48;;
44270;SDS011;29963;44.594;11.368;2023-04-25T14:13:51;1.13;;;0.60;;
44270;SDS011;29963;44.594;11.368;2023-04-25T14:16:17;3.03;;;0.73;;
44270;SDS011;29963;44.594;11.368;2023-04-25T14:18:42;1.65;;;0.63;;
44270;SDS011;29963;44.594;11.368;2023-04-25T14:21:08;1.02;;;0.50;;
44270;SDS011;29963;44.594;11.368;2023-04-25T14:23:34;3.25;;;0.68;;
44270;SDS011;29963;44.594;11.368;2023-04-25T14:26:00;1.00;;;0.65;;
44270;SDS011;29963;44.594;11.368;2023-04-25T14:28:26;1.15;;;0.70;;
44270;SDS011;29963;44.594;11.368;2023-04-25T14:30:52;3.05;;;0.80;;
44270;SDS011;29963;44.594;11.368;2023-04-25T14:33:17;0.50;;;0.50;;
44270;SDS011;29963;44.594;11.368;2023-04-25T14:35:43;0.95;;;0.60;;
44270;SDS011;29963;44.594;11.368;2023-04-25T14:38:09;1.67;;;0.80;;
44270;SDS011;29963;44.594;11.368;2023-04-25T14:40:34;1.48;;;0.70;;
44270;SDS011;29963;44.594;11.368;2023-04-25T14:43:00;0.80;;;0.80;;
44270;SDS011;29963;44.594;11.368;2023-04-25T14:45:25;3.45;;;0.77;;
44270;SDS011;29963;44.594;11.368;2023-04-25T14:47:51;4.55;;;1.20;;
44270;SDS011;29963;44.594;11.368;2023-04-25T14:50:16;2.10;;;0.60;;